Arendtsville, Pennsylvania
Current Conditions -  °F | °C
As of 8:53 PM on Saturday 22 Nov 2014 (Local Time) from KRYT Reporting Station
Broken Clouds Broken Clouds  
Wind Chill: 40°   Ceiling: 11000
Heat Index: 40°   Visibility: 10mi
Dew Point: 18°   Wind: 3mph
Humidity: 41%   Direction: NA
Pressure: 30.19"   Gusts: NA
Location:  39.92°N, 77.3°W
Report Text: KRYT 230153Z AUTO VRB03KT 10SM BKN110 04/M08 A3019 RMK AO2 SLP236 T00441078 $
Loading
Personal Weather Stations






























Interactive Weather Map New forecast layout! Learn more

10-Day Weather Forecast

Advertisements
Track Severe Weather on mobile